createdAt,value
2019-03-23T00:00:13.563Z,10.80
2019-03-23T00:03:22.895Z,10.81
2019-03-23T00:06:43.713Z,10.82
2019-03-23T00:09:53.456Z,10.68
2019-03-23T00:13:02.889Z,10.78
2019-03-23T00:16:22.691Z,10.87
2019-03-23T00:19:33.951Z,10.79
2019-03-23T00:22:43.491Z,10.57
2019-03-23T00:25:52.954Z,10.65
2019-03-23T00:29:02.397Z,10.64
2019-03-23T00:32:12.012Z,10.64
2019-03-23T00:35:21.454Z,10.62
2019-03-23T00:38:41.236Z,10.63
2019-03-23T00:41:50.747Z,10.48
2019-03-23T00:45:00.339Z,10.40
2019-03-23T00:48:09.783Z,10.46
2019-03-23T00:51:19.234Z,10.47
2019-03-23T00:54:39.117Z,10.51
2019-03-23T00:57:48.537Z,10.47
2019-03-23T01:00:57.955Z,10.46
2019-03-23T01:04:17.752Z,10.48
2019-03-23T01:07:27.055Z,10.41
2019-03-23T01:10:36.669Z,10.32
2019-03-23T01:13:56.287Z,10.37
2019-03-23T01:17:05.933Z,10.26
2019-03-23T01:20:15.908Z,10.21
2019-03-23T01:23:25.332Z,10.17
2019-03-23T01:26:34.770Z,10.13
2019-03-23T01:29:44.205Z,10.06
2019-03-23T01:32:53.646Z,10.11
2019-03-23T01:36:13.650Z,10.14
2019-03-23T01:39:23.261Z,10.05
2019-03-23T01:42:32.711Z,10.05
2019-03-23T01:45:42.176Z,10.04
2019-03-23T01:48:51.583Z,10.04
2019-03-23T01:52:11.311Z,10.00
2019-03-23T01:55:20.747Z,9.97
2019-03-23T01:58:30.175Z,9.92
2019-03-23T02:01:49.899Z,10.09
2019-03-23T02:04:59.353Z,9.96
2019-03-23T02:08:08.800Z,9.87
2019-03-23T02:11:28.437Z,9.88
2019-03-23T02:14:49.509Z,9.75
2019-03-23T02:17:59.050Z,9.64
2019-03-23T02:21:08.438Z,9.51
2019-03-23T02:24:17.862Z,9.36
2019-03-23T02:27:27.281Z,9.17
2019-03-23T02:30:38.224Z,9.07
2019-03-23T02:33:47.762Z,8.82
2019-03-23T02:36:57.203Z,8.84
2019-03-23T02:40:08.770Z,8.83
2019-03-23T02:43:18.768Z,8.76
2019-03-23T02:46:28.090Z,8.73
2019-03-23T02:49:47.969Z,8.81
2019-03-23T02:52:57.462Z,8.73
2019-03-23T02:56:06.987Z,8.63
2019-03-23T02:59:26.493Z,8.70
2019-03-23T03:02:35.969Z,8.66
2019-03-23T03:05:45.476Z,8.61
2019-03-23T03:09:06.566Z,8.64
2019-03-23T03:12:16.047Z,8.64
2019-03-23T03:15:26.596Z,8.63
2019-03-23T03:18:36.116Z,8.52
2019-03-23T03:21:46.577Z,8.46
2019-03-23T03:24:56.140Z,8.36
2019-03-23T03:28:06.566Z,8.35
2019-03-23T03:31:15.902Z,8.30
2019-03-23T03:34:36.983Z,8.40
2019-03-23T03:37:56.534Z,8.23
2019-03-23T03:40:57.695Z,8.25
2019-03-23T03:44:17.418Z,8.38
2019-03-23T03:47:26.879Z,8.37
2019-03-23T03:50:36.272Z,8.31
2019-03-23T03:53:56.000Z,8.49
2019-03-23T03:57:05.432Z,8.45
2019-03-23T04:00:15.253Z,8.36
2019-03-23T04:03:24.609Z,8.24
2019-03-23T04:06:34.006Z,8.25
2019-03-23T04:09:55.231Z,8.31
2019-03-23T04:13:14.686Z,8.32
2019-03-23T04:16:24.143Z,8.34
2019-03-23T04:19:33.621Z,8.42
2019-03-23T04:22:53.311Z,8.49
2019-03-23T04:26:02.705Z,8.49
2019-03-23T04:29:12.230Z,8.31
2019-03-23T04:32:33.261Z,8.16
2019-03-23T04:35:42.689Z,8.15
2019-03-23T04:38:52.111Z,8.05
2019-03-23T04:42:11.929Z,8.06
2019-03-23T04:45:21.613Z,8.10
2019-03-23T04:48:31.072Z,8.03
2019-03-23T04:51:40.542Z,8.07
2019-03-23T04:54:50.062Z,8.09
2019-03-23T04:58:09.856Z,8.10
2019-03-23T05:01:19.310Z,8.07
2019-03-23T05:04:28.740Z,8.16
2019-03-23T05:07:38.470Z,8.12
2019-03-23T05:10:48.061Z,8.06
2019-03-23T05:13:57.361Z,8.15
2019-03-23T05:17:08.710Z,8.06
2019-03-23T05:20:30.882Z,8.18
2019-03-23T05:23:41.733Z,8.00
2019-03-23T05:27:01.439Z,8.19
2019-03-23T05:30:11.102Z,8.13
2019-03-23T05:33:20.490Z,8.23
2019-03-23T05:36:29.923Z,8.25
2019-03-23T05:39:39.440Z,8.28
2019-03-23T05:42:59.028Z,8.43
2019-03-23T05:46:08.456Z,8.36
2019-03-23T05:49:17.849Z,8.29
2019-03-23T05:52:37.574Z,8.46
2019-03-23T05:55:46.996Z,8.36
2019-03-23T05:58:56.492Z,8.39
2019-03-23T06:02:16.142Z,8.48
2019-03-23T06:05:25.864Z,8.40
2019-03-23T06:08:35.344Z,8.41
2019-03-23T06:11:44.768Z,8.47
2019-03-23T06:14:54.267Z,8.50
2019-03-23T06:18:13.890Z,8.60
2019-03-23T06:21:23.309Z,8.49
2019-03-23T06:24:32.736Z,8.63
2019-03-23T06:27:41.782Z,8.59
2019-03-23T06:31:01.231Z,8.62
2019-03-23T06:34:10.628Z,8.56
2019-03-23T06:37:20.053Z,8.56
2019-03-23T06:40:39.808Z,8.66
2019-03-23T06:43:49.704Z,8.64
2019-03-23T06:47:09.726Z,8.71
2019-03-23T06:50:19.266Z,8.66
2019-03-23T06:53:28.679Z,8.73
2019-03-23T06:56:38.230Z,8.75
2019-03-23T06:59:47.729Z,8.72
2019-03-23T07:03:07.435Z,8.81
2019-03-23T07:06:16.881Z,8.79
2019-03-23T07:09:26.276Z,8.83
2019-03-23T07:12:35.777Z,8.66
2019-03-23T07:15:45.183Z,8.69
2019-03-23T07:18:54.619Z,8.73
2019-03-23T07:22:04.071Z,8.79
2019-03-23T07:25:14.393Z,8.97
2019-03-23T07:28:23.717Z,9.00
2019-03-23T07:31:43.476Z,9.03
2019-03-23T07:34:52.913Z,9.10
2019-03-23T07:38:02.238Z,9.11
2019-03-23T07:41:22.127Z,9.30
2019-03-23T07:44:31.568Z,9.37
2019-03-23T07:47:40.874Z,9.38
2019-03-23T07:51:00.709Z,9.40
2019-03-23T07:54:10.029Z,9.38
2019-03-23T07:57:19.420Z,9.41
2019-03-23T08:00:40.977Z,9.57
2019-03-23T08:03:50.326Z,9.52
2019-03-23T08:06:59.986Z,9.61
2019-03-23T08:10:10.101Z,9.69
2019-03-23T08:13:29.932Z,9.83
2019-03-23T08:16:39.333Z,9.87
2019-03-23T08:19:48.763Z,9.91
2019-03-23T08:22:58.198Z,9.95
2019-03-23T08:26:08.027Z,10.03
2019-03-23T08:29:17.467Z,10.05
2019-03-23T08:32:26.872Z,10.05
2019-03-23T08:35:46.810Z,10.10
2019-03-23T08:38:56.287Z,10.00
2019-03-23T08:42:05.694Z,10.05
2019-03-23T08:45:15.463Z,10.06
2019-03-23T08:48:24.896Z,10.15
2019-03-23T08:51:34.501Z,10.14
2019-03-23T08:54:43.959Z,10.18
2019-03-23T08:58:03.728Z,10.19
2019-03-23T09:01:13.496Z,10.24
2019-03-23T09:04:22.922Z,10.37
2019-03-23T09:07:32.239Z,10.32
2019-03-23T09:10:41.677Z,10.22
2019-03-23T09:14:01.492Z,10.39
2019-03-23T09:17:11.158Z,10.45
2019-03-23T09:20:20.591Z,10.51
2019-03-23T09:23:29.994Z,10.62
2019-03-23T09:26:39.587Z,10.62
2019-03-23T09:29:59.263Z,10.80
2019-03-23T09:33:08.854Z,10.69
2019-03-23T09:36:18.474Z,10.74
2019-03-23T09:39:27.895Z,10.73
2019-03-23T09:42:37.306Z,10.84
2019-03-23T09:45:57.035Z,10.89
2019-03-23T09:49:06.487Z,10.81
2019-03-23T09:52:15.935Z,10.81
2019-03-23T09:55:25.479Z,10.85
2019-03-23T09:58:34.909Z,10.85
2019-03-23T10:01:54.806Z,11.02
2019-03-23T10:05:04.269Z,10.93
2019-03-23T10:08:13.792Z,11.06
2019-03-23T10:11:23.348Z,11.13
2019-03-23T10:14:32.858Z,11.03
2019-03-23T10:17:52.544Z,11.26
2019-03-23T10:21:01.892Z,11.08
2019-03-23T10:24:11.453Z,11.20
2019-03-23T10:27:20.920Z,11.22
2019-03-23T10:30:30.355Z,11.28
2019-03-23T10:33:50.312Z,11.18
2019-03-23T10:36:59.823Z,11.07
2019-03-23T10:40:09.878Z,11.16
2019-03-23T10:43:19.253Z,11.20
2019-03-23T10:46:28.718Z,11.13
2019-03-23T10:49:38.256Z,11.27
2019-03-23T10:53:06.861Z,11.26
2019-03-23T10:56:18.590Z,11.24
2019-03-23T10:59:39.515Z,11.41
2019-03-23T11:02:59.459Z,11.37
2019-03-23T11:06:09.694Z,11.38
2019-03-23T11:09:29.220Z,11.38
2019-03-23T11:12:38.736Z,11.43
2019-03-23T11:15:48.157Z,11.56
2019-03-23T11:19:13.378Z,11.69
2019-03-23T11:22:19.182Z,11.67
2019-03-23T11:25:28.598Z,11.65
2019-03-23T11:28:37.961Z,11.57
2019-03-23T11:31:47.435Z,11.57
2019-03-23T11:35:08.716Z,11.70
2019-03-23T11:38:18.187Z,11.76
2019-03-23T11:41:27.600Z,11.69
2019-03-23T11:44:47.313Z,11.77
2019-03-23T11:47:56.781Z,11.68
2019-03-23T11:51:06.186Z,11.66
2019-03-23T11:54:25.908Z,11.74
2019-03-23T11:57:35.221Z,11.65
2019-03-23T12:00:44.583Z,11.53
2019-03-23T12:03:53.926Z,11.55
2019-03-23T12:07:03.240Z,11.55
2019-03-23T12:10:14.390Z,11.49
2019-03-23T12:13:33.994Z,11.53
2019-03-23T12:16:43.447Z,11.55
2019-03-23T12:19:53.382Z,11.54
2019-03-23T12:23:02.714Z,11.43
2019-03-23T12:26:12.135Z,11.34
2019-03-23T12:29:31.822Z,11.43
2019-03-23T12:32:41.308Z,11.27
2019-03-23T12:35:50.738Z,11.15
2019-03-23T12:39:10.398Z,11.19
2019-03-23T12:42:19.762Z,11.09
2019-03-23T12:45:29.624Z,11.06
2019-03-23T12:48:39.780Z,11.01
2019-03-23T12:52:00.256Z,11.20
2019-03-23T12:55:20.399Z,11.31
2019-03-23T12:58:29.822Z,11.46
2019-03-23T13:01:39.264Z,11.54
2019-03-23T13:04:48.846Z,11.68
2019-03-23T13:07:58.312Z,11.89
2019-03-23T13:11:23.240Z,12.07
2019-03-23T13:14:29.123Z,12.13
2019-03-23T13:17:38.468Z,12.50
2019-03-23T13:20:58.174Z,12.80
2019-03-23T13:24:07.475Z,12.83
2019-03-23T13:27:18.279Z,13.07
2019-03-23T13:30:27.758Z,13.27
2019-03-23T13:33:37.111Z,13.86
2019-03-23T13:36:46.501Z,14.29
2019-03-23T13:40:07.274Z,14.38
2019-03-23T13:43:16.640Z,14.20
2019-03-23T13:46:26.141Z,14.19
2019-03-23T13:49:35.455Z,14.06
2019-03-23T13:52:44.823Z,13.91
2019-03-23T13:55:54.228Z,13.65
2019-03-23T13:59:03.647Z,13.56
2019-03-23T14:02:23.259Z,13.45
2019-03-23T14:05:33.586Z,13.47
2019-03-23T14:08:42.888Z,13.53
2019-03-23T14:11:55.174Z,13.71
2019-03-23T14:15:03.340Z,13.88
2019-03-23T14:18:12.773Z,14.04
2019-03-23T14:21:22.228Z,14.09
2019-03-23T14:24:42.206Z,14.24
2019-03-23T14:27:51.518Z,14.25
2019-03-23T14:31:00.846Z,14.19
2019-03-23T14:34:20.553Z,14.27
2019-03-23T14:37:29.883Z,14.29
2019-03-23T14:40:41.310Z,14.34
2019-03-23T14:44:00.710Z,14.29
2019-03-23T14:47:10.138Z,14.23
2019-03-23T14:50:19.749Z,14.09
2019-03-23T14:53:39.269Z,13.97
2019-03-23T14:56:48.989Z,13.79
2019-03-23T14:59:58.403Z,13.70
2019-03-23T15:03:07.860Z,13.47
2019-03-23T15:06:17.265Z,13.43
2019-03-23T15:09:37.045Z,13.46
2019-03-23T15:12:46.576Z,13.32
2019-03-23T15:15:55.987Z,13.22
2019-03-23T15:19:15.835Z,13.25
2019-03-23T15:22:25.314Z,13.12
2019-03-23T15:25:34.747Z,13.03
2019-03-23T15:28:44.068Z,12.98
2019-03-23T15:31:53.482Z,12.93
2019-03-23T15:35:02.815Z,12.91
2019-03-23T15:38:12.221Z,12.87
2019-03-23T15:41:21.665Z,12.80
2019-03-23T15:44:41.334Z,12.81
2019-03-23T15:47:50.620Z,12.65
2019-03-23T15:50:59.936Z,12.39
2019-03-23T15:54:09.262Z,12.39
2019-03-23T15:57:18.632Z,12.32
2019-03-23T16:00:28.059Z,12.25
2019-03-23T16:03:37.396Z,12.29
2019-03-23T16:06:46.742Z,12.18
2019-03-23T16:09:56.071Z,12.23
2019-03-23T16:13:05.583Z,12.19
2019-03-23T16:16:15.029Z,12.00
2019-03-23T16:19:24.433Z,11.94
2019-03-23T16:22:44.054Z,11.93
2019-03-23T16:25:53.788Z,11.86
2019-03-23T16:29:03.121Z,11.90
2019-03-23T16:32:12.524Z,11.77
2019-03-23T16:35:21.932Z,11.77
2019-03-23T16:38:41.655Z,11.71
2019-03-23T16:41:51.112Z,11.61
2019-03-23T16:45:00.538Z,11.43
2019-03-23T16:48:20.328Z,11.38
2019-03-23T16:51:29.724Z,11.21
2019-03-23T16:54:39.160Z,11.15
2019-03-23T16:57:58.806Z,11.13
2019-03-23T17:01:08.176Z,11.02
2019-03-23T17:04:17.650Z,11.01
2019-03-23T17:07:37.479Z,10.90
2019-03-23T17:10:46.869Z,10.76
2019-03-23T17:13:56.264Z,10.74
2019-03-23T17:17:15.897Z,10.67
2019-03-23T17:20:25.441Z,10.56
2019-03-23T17:23:34.772Z,10.50
2019-03-23T17:26:54.508Z,10.38
2019-03-23T17:30:03.985Z,10.18
2019-03-23T17:33:13.418Z,10.16
2019-03-23T17:36:33.133Z,10.12
2019-03-23T17:39:42.677Z,10.01
2019-03-23T17:42:52.298Z,9.89
2019-03-23T17:46:01.601Z,9.86
2019-03-23T17:49:11.034Z,9.77
2019-03-23T17:52:30.789Z,9.76
2019-03-23T17:55:40.181Z,9.61
2019-03-23T17:58:49.509Z,9.59
2019-03-23T18:02:09.665Z,9.62
2019-03-23T18:05:19.093Z,9.55
2019-03-23T18:08:28.407Z,9.54
2019-03-23T18:11:50.802Z,9.63
2019-03-23T18:15:12.678Z,9.50
2019-03-23T18:18:22.114Z,9.38
2019-03-23T18:21:41.994Z,9.50
2019-03-23T18:24:51.565Z,9.30
2019-03-23T18:28:02.420Z,9.29
2019-03-23T18:31:22.094Z,9.26
2019-03-23T18:34:31.436Z,9.13
2019-03-23T18:37:41.811Z,9.14
2019-03-23T18:40:51.130Z,8.99
2019-03-23T18:44:00.589Z,8.93
2019-03-23T18:47:10.078Z,8.87
2019-03-23T18:50:19.501Z,8.74
2019-03-23T18:53:39.078Z,8.78
2019-03-23T18:56:48.376Z,8.80
2019-03-23T18:59:57.881Z,8.68
2019-03-23T19:03:07.335Z,8.66
2019-03-23T19:06:17.501Z,8.61
2019-03-23T19:09:26.807Z,8.56
2019-03-23T19:12:36.936Z,8.52
2019-03-23T19:15:46.254Z,8.47
2019-03-23T19:18:55.592Z,8.43
2019-03-23T19:22:15.255Z,8.46
2019-03-23T19:25:24.680Z,8.40
2019-03-23T19:28:34.096Z,8.39
2019-03-23T19:31:53.950Z,8.44
2019-03-23T19:35:03.274Z,8.27
2019-03-23T19:38:12.551Z,8.36
2019-03-23T19:41:21.861Z,8.40
2019-03-23T19:44:31.186Z,8.37
2019-03-23T19:47:40.466Z,8.29
2019-03-23T19:50:49.785Z,8.25
2019-03-23T19:53:59.177Z,8.13
2019-03-23T19:57:08.639Z,8.16
2019-03-23T20:00:28.383Z,8.20
2019-03-23T20:03:37.685Z,8.02
2019-03-23T20:06:47.011Z,8.09
2019-03-23T20:09:56.402Z,8.08
2019-03-23T20:13:05.751Z,8.04
2019-03-23T20:16:15.100Z,7.98
2019-03-23T20:19:24.378Z,8.02
2019-03-23T20:22:33.708Z,7.95
2019-03-23T20:25:43.027Z,7.91
2019-03-23T20:28:52.310Z,7.89
2019-03-23T20:32:01.617Z,7.78
2019-03-23T20:35:11.302Z,7.77
2019-03-23T20:38:30.971Z,7.74
2019-03-23T20:41:40.385Z,7.65
2019-03-23T20:44:49.738Z,7.71
2019-03-23T20:48:09.651Z,7.83
2019-03-23T20:51:19.276Z,7.84
2019-03-23T20:54:29.155Z,7.81
2019-03-23T20:57:38.691Z,7.83
2019-03-23T21:00:48.133Z,7.81
2019-03-23T21:03:57.422Z,7.88
2019-03-23T21:07:06.755Z,7.86
2019-03-23T21:10:16.152Z,7.91
2019-03-23T21:13:25.480Z,7.84
2019-03-23T21:16:34.800Z,7.83
2019-03-23T21:19:54.680Z,7.82
2019-03-23T21:23:04.129Z,7.72
2019-03-23T21:26:14.127Z,7.74
2019-03-23T21:29:23.543Z,7.73
2019-03-23T21:32:32.932Z,7.75
2019-03-23T21:35:52.420Z,7.79
2019-03-23T21:39:01.749Z,7.67
2019-03-23T21:42:11.156Z,7.72
2019-03-23T21:45:20.576Z,7.69
2019-03-23T21:48:29.984Z,7.62
2019-03-23T21:51:39.356Z,7.62
2019-03-23T21:54:58.971Z,7.69
2019-03-23T21:58:08.383Z,7.62
2019-03-23T22:01:17.765Z,7.62
2019-03-23T22:04:27.099Z,7.64
2019-03-23T22:07:36.420Z,7.64
2019-03-23T22:10:45.731Z,7.59
2019-03-23T22:13:55.131Z,7.55
2019-03-23T22:17:05.850Z,7.58
2019-03-23T22:20:15.404Z,7.65
2019-03-23T22:23:35.171Z,7.74
2019-03-23T22:26:44.576Z,7.65
2019-03-23T22:29:53.902Z,7.58
2019-03-23T22:33:05.514Z,7.56
2019-03-23T22:36:14.828Z,7.56
2019-03-23T22:39:34.538Z,7.64
2019-03-23T22:42:43.814Z,7.60
2019-03-23T22:45:53.136Z,7.54
2019-03-23T22:49:02.448Z,7.45
2019-03-23T22:52:11.824Z,7.39
2019-03-23T22:55:21.255Z,7.32
2019-03-23T22:58:30.617Z,7.42
2019-03-23T23:01:40.151Z,7.45
2019-03-23T23:04:49.609Z,7.55
2019-03-23T23:07:59.001Z,7.56
2019-03-23T23:11:08.511Z,7.53
2019-03-23T23:14:28.296Z,7.48
2019-03-23T23:17:37.602Z,7.55
2019-03-23T23:20:47.098Z,7.52
2019-03-23T23:24:07.139Z,7.55
2019-03-23T23:27:17.443Z,7.49
2019-03-23T23:30:26.959Z,7.45
2019-03-23T23:33:36.346Z,7.44
2019-03-23T23:36:45.867Z,7.42
2019-03-23T23:39:55.309Z,7.40
2019-03-23T23:43:14.851Z,7.53
2019-03-23T23:46:24.283Z,7.56
2019-03-23T23:49:33.684Z,7.50
2019-03-23T23:52:53.402Z,7.49
2019-03-23T23:56:02.910Z,7.32
2019-03-23T23:59:12.281Z,7.29
